Time;durP1;ratioP1;P1;durP2;ratioP2;P2;SDS_P1;SDS_P2;PMS_P1;PMS_P2;Temp;Humidity;BMP_temperature;BMP_pressure;BME280_temperature;BME280_humidity;BME280_pressure;Samples;Min_cycle;Max_cycle;Signal;HPM_P1;HPM_P2
2022/05/11 00:00:15;;;;;;;5.63;1.75;;;12.70;99.90;;;;;;5067342;28;20029;-58
2022/05/11 00:02:41;;;;;;;7.10;1.67;;;12.70;99.90;;;;;;5067065;28;20123;-58
2022/05/11 00:05:09;;;;;;;4.82;1.15;;;12.70;99.90;;;;;;5067261;28;20116;-58
2022/05/11 00:07:35;;;;;;;9.07;1.67;;;12.60;99.90;;;;;;5070279;28;20049;-58
2022/05/11 00:10:02;;;;;;;3.72;1.40;;;12.60;99.90;;;;;;5069664;28;20028;-58
2022/05/11 00:12:27;;;;;;;4.18;1.25;;;12.60;99.90;;;;;;5066874;28;20082;-59
2022/05/11 00:14:53;;;;;;;3.05;1.55;;;12.60;99.90;;;;;;5067012;28;20029;-58
2022/05/11 00:17:19;;;;;;;6.00;1.85;;;12.70;99.90;;;;;;5066898;28;20062;-58
2022/05/11 00:19:44;;;;;;;5.78;1.33;;;12.70;99.90;;;;;;5069114;28;20108;-57
2022/05/11 00:22:10;;;;;;;6.18;1.27;;;12.70;99.90;;;;;;5069984;28;20501;-58
2022/05/11 00:24:36;;;;;;;9.85;1.67;;;12.70;99.90;;;;;;5067161;28;20036;-58
2022/05/11 00:27:02;;;;;;;4.45;1.10;;;12.70;99.90;;;;;;5066715;28;20024;-58
2022/05/11 00:29:30;;;;;;;6.75;1.52;;;12.80;99.90;;;;;;5068965;28;20111;-58
2022/05/11 00:31:56;;;;;;;9.10;1.50;;;12.80;99.90;;;;;;5069802;28;20031;-58
2022/05/11 00:34:22;;;;;;;7.85;2.22;;;12.80;99.90;;;;;;5070177;28;20024;-58
2022/05/11 00:36:48;;;;;;;6.60;1.92;;;12.80;99.90;;;;;;5069840;28;20499;-58
2022/05/11 00:39:13;;;;;;;4.15;1.25;;;12.80;99.90;;;;;;5069974;28;20448;-58
2022/05/11 00:41:41;;;;;;;9.13;1.33;;;12.90;99.90;;;;;;5051212;28;20028;-58
2022/05/11 00:44:09;;;;;;;6.55;1.50;;;12.90;99.90;;;;;;5066532;28;20029;-58
2022/05/11 00:46:56;;;;;;;6.13;1.60;;;12.90;99.90;;;;;;5066342;28;20044;-58
2022/05/11 00:49:34;;;;;;;3.55;1.45;;;12.90;99.90;;;;;;5070455;28;20444;-58
2022/05/11 00:52:12;;;;;;;5.85;1.58;;;12.90;99.90;;;;;;5076415;28;20036;-58
2022/05/11 00:54:48;;;;;;;6.20;2.15;;;12.90;99.90;;;;;;5076487;28;20552;-58
2022/05/11 00:57:21;;;;;;;4.18;1.42;;;12.90;99.90;;;;;;5076058;28;20039;-58
2022/05/11 00:59:50;;;;;;;5.97;1.58;;;12.80;99.90;;;;;;5076454;28;20074;-58
2022/05/11 01:02:18;;;;;;;6.22;1.52;;;12.80;99.90;;;;;;5074351;28;20107;-60
2022/05/11 01:04:44;;;;;;;6.63;2.10;;;12.80;99.90;;;;;;5073119;28;20040;-58
2022/05/11 01:07:13;;;;;;;3.30;1.27;;;12.80;99.90;;;;;;5074195;28;20024;-58
2022/05/11 01:09:40;;;;;;;5.43;1.80;;;12.70;99.90;;;;;;5076338;28;20028;-58
2022/05/11 01:12:10;;;;;;;4.93;1.55;;;12.70;99.90;;;;;;5075992;28;20063;-59
2022/05/11 01:14:38;;;;;;;;;;;12.80;99.90;;;;;;5073416;28;20464;-58
2022/05/11 01:17:04;;;;;;;3.85;1.85;;;12.80;99.90;;;;;;5076353;28;19909;-58
2022/05/11 01:19:42;;;;;;;6.45;1.17;;;12.80;99.90;;;;;;5076688;28;20033;-58
2022/05/11 01:22:26;;;;;;;3.47;1.33;;;12.80;99.90;;;;;;5076288;28;20107;-58
2022/05/11 01:24:52;;;;;;;3.83;1.10;;;12.80;99.90;;;;;;5076041;28;20044;-58
2022/05/11 01:27:21;;;;;;;8.50;1.90;;;12.90;99.90;;;;;;5076028;28;20020;-58
2022/05/11 01:29:47;;;;;;;9.40;1.63;;;12.90;99.90;;;;;;5076091;28;20370;-58
2022/05/11 01:32:12;;;;;;;5.00;1.63;;;12.90;99.90;;;;;;5075982;28;20041;-58
2022/05/11 01:34:38;;;;;;;8.40;2.00;;;12.80;99.90;;;;;;5076146;28;20036;-58
2022/05/11 01:37:04;;;;;;;4.25;1.33;;;12.80;99.90;;;;;;5076159;28;20514;-58
2022/05/11 01:39:30;;;;;;;7.63;1.50;;;12.90;99.90;;;;;;5076216;28;20020;-58
2022/05/11 01:41:55;;;;;;;7.82;1.63;;;12.80;99.90;;;;;;5075929;28;20054;-58
2022/05/11 01:44:22;;;;;;;6.82;2.05;;;12.90;99.90;;;;;;5075883;28;20054;-58
2022/05/11 01:46:53;;;;;;;8.70;1.40;;;12.80;99.90;;;;;;5061831;28;20063;-58
2022/05/11 01:49:21;;;;;;;9.32;1.60;;;12.80;99.90;;;;;;5062551;28;20094;-58
2022/05/11 01:51:47;;;;;;;7.50;1.25;;;12.90;99.90;;;;;;5072112;28;20464;-59
2022/05/11 01:54:13;;;;;;;5.13;1.50;;;12.80;99.90;;;;;;5072811;28;20492;-58
2022/05/11 01:56:40;;;;;;;4.00;1.80;;;12.80;99.90;;;;;;5072366;28;20106;-59
2022/05/11 01:59:05;;;;;;;5.53;1.25;;;12.80;99.90;;;;;;5072893;28;20020;-58
2022/05/11 02:01:33;;;;;;;2.85;1.25;;;12.80;99.90;;;;;;5068762;28;20024;-58
2022/05/11 02:04:00;;;;;;;5.28;1.40;;;12.80;99.90;;;;;;5069852;28;20394;-58
2022/05/11 02:09:10;;;;;;;7.20;1.88;;;12.70;99.90;;;;;;5072970;28;20032;-58
2022/05/11 02:11:36;;;;;;;4.93;1.60;;;12.60;99.90;;;;;;5072310;28;20374;-58
2022/05/11 02:14:02;;;;;;;9.90;1.58;;;12.60;99.90;;;;;;5072493;28;20032;-57
2022/05/11 02:16:28;;;;;;;8.02;1.70;;;12.50;99.90;;;;;;5072406;28;20029;-58
2022/05/11 02:18:55;;;;;;;7.13;1.27;;;12.50;99.90;;;;;;5072052;28;20044;-58
2022/05/11 02:21:21;;;;;;;5.25;1.42;;;12.40;99.90;;;;;;5072577;28;20025;-57
2022/05/11 02:23:50;;;;;;;5.65;1.65;;;12.40;99.90;;;;;;5072255;28;20115;-58
2022/05/11 02:26:16;;;;;;;7.85;1.75;;;12.40;99.90;;;;;;5072166;28;20036;-58
2022/05/11 02:28:42;;;;;;;1.13;0.75;;;12.40;99.90;;;;;;5072705;28;20073;-58
2022/05/11 02:31:09;;;;;;;2.60;1.65;;;12.40;99.90;;;;;;5071281;28;20036;-58
2022/05/11 02:33:34;;;;;;;1.92;1.52;;;12.50;99.90;;;;;;5068744;28;20512;-57
2022/05/11 02:36:00;;;;;;;6.85;1.23;;;12.50;99.90;;;;;;5068903;28;20169;-58
2022/05/11 02:38:30;;;;;;;6.82;1.75;;;12.40;99.90;;;;;;5069021;28;20489;-57
2022/05/11 02:40:55;;;;;;;8.98;1.48;;;12.50;99.90;;;;;;5069183;28;20067;-58
2022/05/11 02:43:21;;;;;;;5.30;1.15;;;12.50;99.90;;;;;;5072121;28;20064;-58
2022/05/11 02:45:48;;;;;;;8.23;2.17;;;12.50;99.90;;;;;;5071702;28;20402;-58
2022/05/11 02:48:17;;;;;;;3.03;0.90;;;12.50;99.90;;;;;;5071706;28;20024;-58
2022/05/11 02:50:46;;;;;;;3.60;1.35;;;12.50;99.90;;;;;;5071767;28;20020;-58
2022/05/11 02:53:13;;;;;;;4.57;1.88;;;12.60;99.90;;;;;;5071660;28;20646;-58
2022/05/11 02:55:42;;;;;;;3.78;1.73;;;12.60;99.90;;;;;;5071515;28;20544;-58
2022/05/11 02:58:08;;;;;;;7.28;1.45;;;12.60;99.90;;;;;;5071566;28;20112;-58
2022/05/11 03:00:36;;;;;;;3.10;1.70;;;12.60;99.90;;;;;;5071628;28;20016;-58
2022/05/11 03:03:04;;;;;;;12.15;1.67;;;12.60;99.90;;;;;;5071338;28;20032;-58
2022/05/11 03:05:30;;;;;;;2.45;0.98;;;12.70;99.90;;;;;;5071506;28;20448;-58
2022/05/11 03:07:56;;;;;;;4.07;1.50;;;12.70;99.90;;;;;;5071427;28;20461;-57
2022/05/11 03:10:22;;;;;;;9.50;1.50;;;12.80;99.90;;;;;;5071361;28;20052;-58
2022/05/11 03:12:48;;;;;;;7.90;2.35;;;12.80;99.90;;;;;;5070700;28;20398;-58
2022/05/11 03:15:14;;;;;;;4.45;1.73;;;12.80;99.90;;;;;;5071187;28;20606;-58
2022/05/11 03:17:40;;;;;;;5.97;1.67;;;12.80;99.90;;;;;;5071074;28;20040;-57
2022/05/11 03:20:07;;;;;;;2.58;1.55;;;12.80;99.90;;;;;;5071413;28;20016;-57
2022/05/11 03:22:33;;;;;;;4.95;1.70;;;12.70;99.90;;;;;;5067761;28;20549;-57
2022/05/11 03:24:59;;;;;;;6.45;1.35;;;12.80;99.90;;;;;;5070994;28;20111;-58
2022/05/11 03:27:25;;;;;;;7.40;1.48;;;12.70;99.90;;;;;;5070900;28;20111;-58
2022/05/11 03:29:51;;;;;;;3.00;1.35;;;12.70;99.90;;;;;;5070919;28;20064;-57
2022/05/11 03:35:02;;;;;;;7.65;1.40;;;12.50;99.90;;;;;;5071071;28;20039;-58
2022/05/11 03:37:28;;;;;;;4.13;1.80;;;12.60;99.90;;;;;;5070914;28;20082;-57
2022/05/11 03:39:54;;;;;;;3.67;1.58;;;12.60;99.90;;;;;;5070953;28;20029;-58
2022/05/11 03:42:22;;;;;;;4.38;1.38;;;12.50;99.90;;;;;;5052396;28;20024;-57
2022/05/11 03:44:48;;;;;;;6.03;1.65;;;12.50;99.90;;;;;;5070574;28;20098;-58
2022/05/11 03:47:14;;;;;;;7.40;1.58;;;12.60;99.90;;;;;;5070630;28;20025;-57
2022/05/11 03:49:40;;;;;;;5.03;2.42;;;12.70;99.90;;;;;;5068783;28;20048;-58
2022/05/11 03:52:06;;;;;;;7.72;1.90;;;12.80;99.90;;;;;;5068956;28;20029;-57
2022/05/11 03:54:32;;;;;;;4.93;1.52;;;12.80;99.90;;;;;;5070372;28;20028;-57
2022/05/11 03:56:58;;;;;;;4.05;1.17;;;12.80;99.90;;;;;;5070333;28;20277;-57
2022/05/11 03:59:23;;;;;;;6.72;1.60;;;12.90;99.90;;;;;;5070580;28;20111;-58
2022/05/11 04:01:49;;;;;;;1.67;1.30;;;12.90;99.90;;;;;;5070367;28;20090;-57
2022/05/11 04:04:15;;;;;;;5.63;1.63;;;12.90;99.90;;;;;;5070147;28;20040;-58
2022/05/11 04:06:40;;;;;;;7.20;2.45;;;12.90;99.90;;;;;;5070293;28;20024;-58
2022/05/11 04:09:06;;;;;;;12.80;2.13;;;12.90;99.90;;;;;;5070239;28;20077;-58
2022/05/11 04:11:33;;;;;;;4.30;1.80;;;12.80;99.90;;;;;;5069926;28;20025;-58
2022/05/11 04:13:59;;;;;;;5.72;1.63;;;12.80;99.90;;;;;;5070102;28;20362;-58
2022/05/11 04:16:25;;;;;;;8.20;1.70;;;12.80;99.90;;;;;;5068565;28;20074;-58
2022/05/11 04:18:50;;;;;;;3.83;1.73;;;12.80;99.90;;;;;;5066647;28;20405;-57
2022/05/11 04:21:16;;;;;;;4.40;1.85;;;12.90;99.90;;;;;;5068436;28;20043;-57
2022/05/11 04:23:42;;;;;;;1.50;1.30;;;12.80;99.90;;;;;;5069268;28;20032;-58
2022/05/11 04:26:08;;;;;;;7.68;1.98;;;12.90;99.90;;;;;;5069898;28;20036;-58
2022/05/11 04:28:34;;;;;;;2.10;1.40;;;12.90;99.90;;;;;;5070086;28;20024;-58
2022/05/11 04:31:05;;;;;;;4.18;1.67;;;12.90;99.90;;;;;;5068739;28;20021;-58
2022/05/11 04:33:31;;;;;;;;;;;12.80;99.90;;;;;;5067317;28;20048;-58
2022/05/11 04:35:57;;;;;;;5.47;1.73;;;12.70;99.90;;;;;;5067342;28;20559;-58
2022/05/11 04:38:23;;;;;;;4.38;1.40;;;12.70;99.90;;;;;;5068844;28;20071;-58
2022/05/11 04:40:49;;;;;;;4.72;1.70;;;12.60;99.90;;;;;;5069592;28;20069;-58
2022/05/11 04:43:15;;;;;;;5.53;1.63;;;12.50;99.90;;;;;;5069965;28;20032;-60
2022/05/11 04:45:43;;;;;;;5.90;1.65;;;12.50;99.90;;;;;;5069482;28;20113;-58
2022/05/11 04:48:10;;;;;;;3.33;1.50;;;12.50;99.90;;;;;;5069941;28;20048;-57
2022/05/11 04:50:39;;;;;;;6.90;1.75;;;12.50;99.90;;;;;;5069813;28;20465;-58
2022/05/11 04:53:05;;;;;;;3.20;1.30;;;12.50;99.90;;;;;;5069659;28;20563;-58
2022/05/11 04:55:31;;;;;;;5.15;1.17;;;12.60;99.90;;;;;;5069868;28;20025;-58
2022/05/11 04:57:57;;;;;;;5.35;1.40;;;12.60;99.90;;;;;;5051558;28;20115;-58
2022/05/11 05:00:24;;;;;;;4.30;1.50;;;12.70;99.90;;;;;;5069210;28;20502;-57
2022/05/11 05:02:50;;;;;;;8.27;1.55;;;12.80;99.90;;;;;;5066162;28;20047;-58
2022/05/11 05:05:17;;;;;;;4.00;1.60;;;12.90;99.90;;;;;;5066729;28;20107;-58
2022/05/11 05:07:43;;;;;;;7.43;2.08;;;13.00;99.90;;;;;;5066255;28;20025;-57
2022/05/11 05:10:12;;;;;;;4.55;1.55;;;13.00;99.90;;;;;;5066317;28;20021;-58
2022/05/11 05:12:38;;;;;;;5.45;1.80;;;13.00;99.90;;;;;;5068591;28;20426;-58
2022/05/11 05:15:04;;;;;;;6.07;1.55;;;13.10;99.90;;;;;;5066280;28;20628;-57
2022/05/11 05:17:30;;;;;;;3.65;1.42;;;13.20;99.90;;;;;;5066790;28;20492;-57
2022/05/11 05:19:56;;;;;;;7.90;1.83;;;13.20;99.90;;;;;;5066352;28;20055;-57
2022/05/11 05:22:22;;;;;;;3.88;1.70;;;13.20;99.90;;;;;;5068333;28;20093;-58
2022/05/11 05:24:48;;;;;;;3.72;1.85;;;13.20;99.90;;;;;;5069450;28;20477;-58
2022/05/11 05:27:16;;;;;;;7.75;2.13;;;13.20;99.90;;;;;;5069410;28;20025;-57
2022/05/11 05:32:33;;;;;;;5.47;1.42;;;13.20;99.90;;;;;;5069509;28;20152;-58
2022/05/11 05:35:00;;;;;;;4.00;1.42;;;13.20;99.90;;;;;;5070358;28;20056;-58
2022/05/11 05:37:26;;;;;;;1.90;1.45;;;13.10;99.90;;;;;;5073018;28;20077;-58
2022/05/11 05:39:51;;;;;;;5.47;1.35;;;13.20;99.90;;;;;;5073097;28;20100;-58
2022/05/11 05:42:23;;;;;;;4.60;1.10;;;13.20;99.90;;;;;;5072696;28;20112;-58
2022/05/11 05:44:49;;;;;;;11.45;2.03;;;13.20;99.90;;;;;;5072620;28;20047;-58
2022/05/11 05:47:16;;;;;;;6.72;1.58;;;13.20;99.90;;;;;;5072893;28;20017;-58
2022/05/11 05:49:42;;;;;;;5.22;1.98;;;13.30;99.90;;;;;;5073009;28;20017;-57
2022/05/11 05:52:13;;;;;;;3.38;1.33;;;13.30;99.90;;;;;;5072908;28;20020;-57
2022/05/11 05:54:39;;;;;;;8.07;1.70;;;13.40;99.90;;;;;;5069387;28;20037;-57
2022/05/11 05:57:05;;;;;;;4.03;2.13;;;13.40;99.90;;;;;;5070012;28;20025;-56
2022/05/11 05:59:31;;;;;;;4.18;2.08;;;13.50;99.90;;;;;;5068953;28;20029;-59
2022/05/11 06:01:57;;;;;;;9.27;1.98;;;13.50;99.90;;;;;;5070919;28;20017;-58
2022/05/11 06:04:23;;;;;;;10.82;2.15;;;13.50;99.90;;;;;;5072209;28;20091;-58
2022/05/11 06:06:49;;;;;;;9.20;2.28;;;13.60;99.90;;;;;;5072685;28;20021;-58
2022/05/11 06:09:14;;;;;;;4.60;1.35;;;13.60;99.90;;;;;;5072905;28;20031;-57
2022/05/11 06:11:40;;;;;;;6.28;1.90;;;13.60;99.90;;;;;;5072293;28;20434;-58
2022/05/11 06:14:06;;;;;;;3.00;1.63;;;13.60;99.90;;;;;;5072412;28;20060;-57
2022/05/11 06:16:32;;;;;;;4.32;1.38;;;13.70;99.90;;;;;;5070977;28;20382;-57
2022/05/11 06:18:58;;;;;;;5.00;1.35;;;13.80;99.90;;;;;;5068839;28;20515;-58
2022/05/11 06:21:24;;;;;;;3.80;1.65;;;13.80;99.90;;;;;;5069978;28;20099;-58
2022/05/11 06:23:51;;;;;;;4.95;1.70;;;13.70;99.90;;;;;;5070614;28;20086;-58
2022/05/11 06:26:17;;;;;;;4.63;1.40;;;13.70;99.90;;;;;;5068947;28;20038;-58
2022/05/11 06:28:45;;;;;;;5.70;1.55;;;13.80;99.90;;;;;;5070426;28;20025;-58
2022/05/11 06:31:11;;;;;;;5.80;1.33;;;13.80;99.90;;;;;;5071995;28;20233;-58
2022/05/11 06:33:37;;;;;;;7.85;1.55;;;13.90;99.90;;;;;;5071754;28;20029;-58
2022/05/11 06:36:05;;;;;;;4.95;1.70;;;14.00;99.90;;;;;;5071885;28;20023;-59
2022/05/11 06:38:30;;;;;;;5.22;1.65;;;14.10;99.90;;;;;;5071982;28;20103;-58
2022/05/11 06:40:56;;;;;;;5.15;1.52;;;14.10;99.90;;;;;;5071617;28;20119;-58
2022/05/11 06:43:22;;;;;;;7.15;1.58;;;14.20;99.90;;;;;;5071779;28;20036;-58
2022/05/11 06:45:48;;;;;;;2.63;1.33;;;14.30;99.90;;;;;;5071475;28;20056;-58
2022/05/11 06:48:14;;;;;;;2.75;1.27;;;14.40;99.90;;;;;;5071139;28;20033;-58
2022/05/11 06:50:41;;;;;;;4.15;1.25;;;14.60;99.90;;;;;;5071667;28;20075;-58
2022/05/11 06:53:11;;;;;;;3.38;1.60;;;14.70;99.90;;;;;;5068226;28;20401;-58
2022/05/11 07:01:15;;;;;;;5.55;1.20;;;14.80;99.90;;;;;;5039210;28;20465;-58
2022/05/11 07:03:41;;;;;;;4.93;1.63;;;14.80;99.90;;;;;;5067538;28;20068;-58
2022/05/11 07:06:07;;;;;;;7.80;1.83;;;14.70;99.90;;;;;;5068246;28;20028;-58
2022/05/11 07:08:44;;;;;;;7.18;1.85;;;14.90;99.90;;;;;;5069804;28;20112;-58
2022/05/11 07:13:55;;;;;;;3.63;1.63;;;14.90;99.90;;;;;;5067862;28;20036;-58
2022/05/11 07:16:23;;;;;;;6.57;1.38;;;15.00;99.90;;;;;;5071098;28;20485;-58
2022/05/11 07:18:49;;;;;;;2.72;1.10;;;15.00;99.90;;;;;;5070848;28;20566;-59
2022/05/11 07:21:15;;;;;;;1.95;1.10;;;15.20;99.90;;;;;;5071291;28;20086;-58
2022/05/11 07:23:40;;;;;;;4.72;1.55;;;15.30;99.90;;;;;;5070883;28;20036;-58
2022/05/11 07:26:06;;;;;;;6.03;1.63;;;15.30;99.90;;;;;;5070820;28;20016;-58
2022/05/11 07:28:32;;;;;;;7.70;1.20;;;15.40;99.90;;;;;;5071135;28;20489;-58
2022/05/11 07:30:58;;;;;;;4.88;1.40;;;15.40;99.90;;;;;;5070896;28;20064;-59
2022/05/11 07:33:24;;;;;;;4.38;1.08;;;15.30;99.90;;;;;;5070673;28;20035;-60
2022/05/11 07:35:49;;;;;;;2.95;1.42;;;15.30;99.90;;;;;;5070692;28;20565;-58
2022/05/11 07:38:17;;;;;;;2.72;1.23;;;15.20;99.90;;;;;;5070579;28;20111;-58
2022/05/11 07:40:44;;;;;;;7.20;1.40;;;15.30;99.90;;;;;;5070152;28;20484;-59
2022/05/11 07:43:10;;;;;;;2.88;1.20;;;15.30;99.90;;;;;;5070463;28;20036;-59
2022/05/11 07:45:38;;;;;;;5.57;1.10;;;15.10;99.90;;;;;;5070243;28;20413;-59
2022/05/11 07:48:04;;;;;;;6.00;1.13;;;15.00;99.90;;;;;;5070319;28;20032;-58
2022/05/11 07:50:31;;;;;;;5.00;1.40;;;15.20;99.90;;;;;;5070171;28;20028;-59
2022/05/11 07:52:57;;;;;;;5.78;1.35;;;15.20;99.90;;;;;;5067261;28;20557;-59
2022/05/11 07:55:25;;;;;;;5.95;1.50;;;15.40;99.90;;;;;;5067328;28;20035;-58
2022/05/11 08:00:37;;;;;;;2.03;0.65;;;15.40;99.90;;;;;;5070214;28;20043;-58
2022/05/11 08:03:03;;;;;;;4.55;1.05;;;15.20;99.90;;;;;;5070026;28;20516;-59
2022/05/11 08:05:30;;;;;;;5.20;1.63;;;15.10;99.90;;;;;;5066992;28;20190;-59
2022/05/11 08:07:58;;;;;;;4.72;1.38;;;15.10;99.90;;;;;;5070090;28;20107;-59
2022/05/11 08:10:29;;;;;;;6.97;1.23;;;15.30;99.90;;;;;;5070081;28;20389;-59
2022/05/11 08:12:55;;;;;;;5.25;1.13;;;15.60;99.90;;;;;;5070150;28;20036;-58
2022/05/11 08:15:23;;;;;;;4.57;1.45;;;16.00;99.90;;;;;;5070034;28;20029;-58
2022/05/11 08:17:51;;;;;;;3.20;1.30;;;16.20;99.90;;;;;;5070083;28;20036;-59
2022/05/11 08:20:25;;;;;;;3.65;1.15;;;16.30;99.90;;;;;;5070022;28;20101;-59
2022/05/11 08:22:52;;;;;;;5.97;1.20;;;16.60;99.90;;;;;;5070113;28;20063;-59
2022/05/11 08:25:20;;;;;;;2.78;1.30;;;17.60;99.90;;;;;;5070169;28;20037;-59
2022/05/11 08:27:47;;;;;;;3.20;1.13;;;18.70;99.90;;;;;;5069811;28;20028;-59
2022/05/11 08:35:44;;;;;;;1.58;0.85;;;20.90;95.60;;;;;;5070012;28;20226;-59
2022/05/11 08:38:11;;;;;;;6.18;1.13;;;21.20;94.40;;;;;;5069696;28;20103;-59
2022/05/11 08:40:39;;;;;;;6.50;1.45;;;21.00;94.90;;;;;;5069942;28;20025;-59
2022/05/11 08:43:10;;;;;;;4.88;1.33;;;20.20;95.60;;;;;;5069943;28;20054;-59
2022/05/11 08:45:45;;;;;;;9.32;1.70;;;20.30;96.20;;;;;;5060736;28;20131;-59
2022/05/11 08:48:45;;;;;;;7.18;1.13;;;20.80;95.40;;;;;;5053372;28;20036;-59
2022/05/11 08:51:21;;;;;;;1.63;0.90;;;19.70;96.20;;;;;;5049368;28;20039;-58
2022/05/11 08:53:52;;;;;;;9.23;1.30;;;19.60;97.20;;;;;;5068494;28;20063;-59
2022/05/11 08:56:20;;;;;;;5.20;1.50;;;20.20;97.80;;;;;;5049304;28;20367;-60
2022/05/11 08:58:52;;;;;;;4.32;1.13;;;20.00;97.20;;;;;;5049693;28;20033;-59
2022/05/11 09:01:34;;;;;;;3.75;1.25;;;19.50;97.90;;;;;;5049771;28;20449;-59
2022/05/11 09:04:04;;;;;;;3.47;1.15;;;19.10;99.60;;;;;;5049025;28;20127;-59
2022/05/11 09:06:30;;;;;;;5.18;1.00;;;19.80;99.30;;;;;;5049402;28;20373;-59
2022/05/11 09:09:01;;;;;;;3.97;1.05;;;19.60;99.00;;;;;;5049458;28;20489;-59
2022/05/11 09:11:39;;;;;;;1.38;0.70;;;20.40;98.60;;;;;;5056414;28;20040;-59
2022/05/11 09:14:05;;;;;;;2.70;0.95;;;21.20;95.90;;;;;;5035584;28;20211;-59
2022/05/11 09:16:50;;;;;;;2.85;1.77;;;21.20;95.30;;;;;;5051037;28;20106;-59
2022/05/11 09:19:23;;;;;;;7.35;1.55;;;21.90;94.60;;;;;;5050523;28;20033;-59
2022/05/11 09:22:09;;;;;;;3.30;1.15;;;21.50;93.60;;;;;;5058504;28;20028;-59
2022/05/11 09:24:46;;;;;;;1.90;0.80;;;21.10;94.70;;;;;;5070140;28;20038;-59
2022/05/11 09:27:24;;;;;;;4.95;1.20;;;21.30;94.90;;;;;;5069780;28;20389;-58
2022/05/11 09:30:22;;;;;;;1.83;0.90;;;22.80;93.80;;;;;;5065877;28;20108;-58
2022/05/11 09:32:48;;;;;;;4.57;1.30;;;23.20;91.40;;;;;;5063350;28;20037;-58
2022/05/11 09:35:22;;;;;;;3.67;0.90;;;22.20;90.70;;;;;;5055400;28;20546;-58
2022/05/11 09:38:05;;;;;;;6.25;1.20;;;24.00;89.50;;;;;;5050632;28;20029;-58
2022/05/11 09:40:47;;;;;;;4.40;1.13;;;24.40;86.30;;;;;;5049389;28;20037;-58
2022/05/11 09:43:35;;;;;;;3.13;0.80;;;23.80;82.20;;;;;;5071835;28;20028;-59
2022/05/11 09:46:21;;;;;;;2.55;0.63;;;23.30;84.70;;;;;;5072331;28;20052;-59
2022/05/11 09:49:00;;;;;;;3.83;1.77;;;22.80;89.00;;;;;;5072067;28;20021;-59
2022/05/11 09:51:35;;;;;;;2.97;0.90;;;23.00;87.30;;;;;;5072777;28;20111;-59
2022/05/11 09:54:18;;;;;;;2.30;0.80;;;22.50;89.40;;;;;;5072699;28;20024;-59
2022/05/11 09:56:50;;;;;;;4.15;1.10;;;22.80;86.00;;;;;;5072459;28;20033;-59
2022/05/11 09:59:17;;;;;;;5.47;1.15;;;22.50;88.30;;;;;;5072755;28;20477;-58
2022/05/11 10:01:43;;;;;;;1.92;1.02;;;22.90;88.40;;;;;;5072619;28;20032;-58
2022/05/11 10:04:10;;;;;;;4.65;1.10;;;22.60;89.20;;;;;;5072320;28;20025;-59
2022/05/11 10:06:47;;;;;;;4.57;1.35;;;22.70;90.20;;;;;;5072297;28;20424;-58
2022/05/11 10:09:15;;;;;;;4.63;0.95;;;21.30;91.50;;;;;;5069046;28;20122;-59
2022/05/11 10:11:48;;;;;;;2.78;1.20;;;21.20;93.50;;;;;;5072225;28;20032;-59
2022/05/11 10:23:12;;;;;;;4.28;1.30;;;19.10;99.90;;;;;;5070830;28;20405;-59
2022/05/11 10:25:48;;;;;;;6.22;1.20;;;19.10;99.90;;;;;;5054878;28;20045;-59
2022/05/11 10:28:32;;;;;;;6.35;1.30;;;18.60;99.90;;;;;;5069610;28;20020;-61
2022/05/11 10:31:12;;;;;;;4.88;1.20;;;18.70;99.90;;;;;;5072114;28;20025;-59
2022/05/11 10:34:03;;;;;;;6.43;1.57;;;18.30;99.90;;;;;;5071758;28;20494;-60
2022/05/11 10:36:47;;;;;;;7.43;1.15;;;18.90;99.90;;;;;;5071879;28;20044;-59
2022/05/11 10:39:43;;;;;;;4.95;1.00;;;19.10;99.70;;;;;;5071772;28;20586;-59
2022/05/11 10:42:14;;;;;;;2.75;0.93;;;19.50;99.90;;;;;;5071533;28;20034;-61
2022/05/11 10:45:02;;;;;;;7.68;1.75;;;19.00;99.90;;;;;;5071326;28;20503;-62
2022/05/11 10:47:33;;;;;;;4.18;1.33;;;18.50;99.90;;;;;;5071797;28;20127;-61
2022/05/11 10:50:28;;;;;;;4.47;1.23;;;18.20;99.90;;;;;;5071903;28;20032;-61
2022/05/11 10:52:56;;;;;;;3.92;1.60;;;17.60;99.90;;;;;;5072143;28;20472;-61
2022/05/11 10:55:43;;;;;;;4.38;0.98;;;17.50;99.90;;;;;;5071819;28;20055;-61
2022/05/11 10:58:09;;;;;;;6.40;1.38;;;17.30;99.90;;;;;;5071819;28;20028;-61
2022/05/11 11:00:46;;;;;;;3.60;1.20;;;17.80;99.90;;;;;;5071960;28;20075;-61
2022/05/11 11:03:18;;;;;;;3.33;1.35;;;17.90;99.90;;;;;;5071366;28;20124;-61
2022/05/11 11:08:58;;;;;;;5.60;1.70;;;19.80;99.90;;;;;;5071259;28;20035;-60
2022/05/11 11:11:59;;;;;;;3.17;1.42;;;21.70;96.60;;;;;;5070731;28;20032;-61
2022/05/11 11:14:35;;;;;;;5.32;1.23;;;23.10;92.10;;;;;;5070994;28;20020;-59
2022/05/11 11:17:04;;;;;;;3.88;1.63;;;22.60;90.20;;;;;;5071367;28;20046;-59
2022/05/11 11:19:31;;;;;;;7.18;1.60;;;25.20;87.10;;;;;;5070950;28;20085;-60
2022/05/11 11:21:57;;;;;;;3.83;1.10;;;25.40;79.70;;;;;;5071219;28;20028;-60
2022/05/11 11:24:27;;;;;;;3.53;1.08;;;25.70;76.10;;;;;;5068191;28;20036;-58
2022/05/11 11:26:57;;;;;;;;;;;24.80;76.30;;;;;;5068078;28;20037;-58
2022/05/11 11:29:29;;;;;;;2.75;1.10;;;24.60;75.80;;;;;;5066883;28;19911;-59
2022/05/11 11:31:58;;;;;;;3.10;1.13;;;23.20;83.50;;;;;;5070931;28;20036;-59
2022/05/11 11:34:27;;;;;;;5.45;1.08;;;23.00;85.50;;;;;;5068441;28;20052;-60
2022/05/11 11:36:54;;;;;;;4.43;1.27;;;23.40;84.50;;;;;;5067099;28;20033;-59
2022/05/11 11:39:55;;;;;;;3.72;1.38;;;23.50;85.20;;;;;;5067362;28;20024;-60
2022/05/11 11:42:44;;;;;;;5.00;0.88;;;22.00;89.40;;;;;;5067351;28;20488;-60
2022/05/11 11:45:31;;;;;;;6.60;1.50;;;20.70;92.80;;;;;;5067239;28;20091;-60
2022/05/11 11:48:03;;;;;;;4.80;1.40;;;19.70;95.40;;;;;;5035884;28;20039;-60
2022/05/11 11:50:46;;;;;;;4.05;1.35;;;18.90;98.20;;;;;;5067668;28;20024;-59
2022/05/11 11:53:54;;;;;;;3.17;1.30;;;18.00;99.90;;;;;;5067147;28;20477;-59
2022/05/11 11:56:23;;;;;;;4.25;1.23;;;18.00;99.90;;;;;;5066753;28;20024;-59
2022/05/11 11:59:03;;;;;;;3.90;1.55;;;17.50;99.90;;;;;;5067054;28;20073;-59
2022/05/11 12:01:32;;;;;;;4.03;1.17;;;17.30;99.90;;;;;;5067298;28;20025;-59
2022/05/11 12:04:04;;;;;;;6.75;1.08;;;17.50;99.90;;;;;;5066611;28;20056;-59
2022/05/11 12:15:02;;;;;;;2.67;1.08;;;18.20;99.90;;;;;;5063640;28;20035;-59
2022/05/11 12:17:35;;;;;;;5.45;1.35;;;18.40;99.90;;;;;;5051110;28;20024;-59
2022/05/11 12:20:17;;;;;;;4.53;1.42;;;18.50;99.90;;;;;;5066763;28;20430;-60
2022/05/11 12:22:57;;;;;;;2.30;1.02;;;18.40;99.90;;;;;;5066760;28;20449;-59
2022/05/11 12:25:29;;;;;;;3.17;1.38;;;18.10;99.90;;;;;;5066571;28;20093;-59
2022/05/11 12:27:58;;;;;;;2.15;1.15;;;18.20;99.90;;;;;;5066604;28;20031;-61
2022/05/11 12:30:32;;;;;;;4.80;1.20;;;18.00;99.90;;;;;;5066870;28;20575;-59
2022/05/11 12:33:01;;;;;;;4.50;1.50;;;18.20;99.90;;;;;;5066287;28;20048;-58
2022/05/11 12:35:27;;;;;;;6.43;1.45;;;18.60;99.90;;;;;;5066438;28;20500;-58
2022/05/11 12:38:03;;;;;;;3.55;1.10;;;19.20;99.90;;;;;;5066349;28;20028;-59
2022/05/11 12:40:31;;;;;;;5.45;1.25;;;19.50;98.20;;;;;;5066437;28;20115;-59
2022/05/11 12:42:59;;;;;;;5.53;1.52;;;19.50;98.00;;;;;;5045918;28;20128;-59
2022/05/11 12:45:36;;;;;;;3.22;0.93;;;20.10;97.50;;;;;;5045626;28;20607;-59
2022/05/11 12:48:03;;;;;;;5.25;1.60;;;20.20;96.80;;;;;;5046317;28;20025;-59
2022/05/11 12:50:34;;;;;;;6.32;1.70;;;19.60;96.70;;;;;;5046252;28;20028;-59
2022/05/11 12:53:17;;;;;;;2.08;1.10;;;19.20;98.10;;;;;;5046994;28;20698;-59
2022/05/11 12:55:49;;;;;;;3.00;1.13;;;19.50;97.80;;;;;;5046514;28;20048;-59
2022/05/11 12:58:26;;;;;;;6.32;1.08;;;19.70;96.90;;;;;;5046485;28;20104;-59
2022/05/11 13:01:03;;;;;;;2.95;0.85;;;19.50;97.30;;;;;;5046706;28;20477;-58
2022/05/11 13:03:37;;;;;;;2.28;0.77;;;18.90;98.50;;;;;;5045938;28;20481;-59
2022/05/11 13:06:15;;;;;;;3.92;1.38;;;18.50;99.60;;;;;;5046008;28;20116;-58
2022/05/11 13:08:46;;;;;;;3.10;1.10;;;18.00;99.90;;;;;;5044025;28;20041;-59
2022/05/11 13:11:16;;;;;;;6.30;1.13;;;17.50;99.90;;;;;;5049580;28;20354;-59
2022/05/11 13:13:44;;;;;;;4.65;1.25;;;17.10;99.90;;;;;;5066173;28;20027;-59
2022/05/11 13:16:19;;;;;;;5.60;1.58;;;16.90;99.90;;;;;;5065851;28;20508;-59
2022/05/11 13:18:46;;;;;;;3.47;1.25;;;16.70;99.90;;;;;;5065982;28;20396;-59
2022/05/11 13:21:12;;;;;;;2.28;0.95;;;16.60;99.90;;;;;;5065721;28;20572;-59
2022/05/11 13:23:49;;;;;;;6.13;1.23;;;16.40;99.90;;;;;;5065552;28;20374;-59
2022/05/11 13:26:29;;;;;;;3.70;0.93;;;16.40;99.90;;;;;;5066000;28;20284;-59
2022/05/11 13:29:09;;;;;;;6.72;1.42;;;16.40;99.90;;;;;;5062161;28;20029;-59
2022/05/11 13:31:35;;;;;;;3.13;0.88;;;16.30;99.90;;;;;;5065175;28;20024;-59
2022/05/11 13:34:04;;;;;;;6.95;1.88;;;16.40;99.90;;;;;;5065357;28;20029;-59
2022/05/11 13:36:42;;;;;;;3.17;0.98;;;16.10;99.90;;;;;;5060983;28;20043;-59
2022/05/11 13:39:13;;;;;;;5.00;1.83;;;15.90;99.90;;;;;;5065204;28;20082;-59
2022/05/11 13:41:59;;;;;;;2.90;1.35;;;15.70;99.90;;;;;;5065219;28;20024;-59
2022/05/11 13:44:37;;;;;;;2.90;1.10;;;15.60;99.90;;;;;;5064803;28;20397;-60
2022/05/11 13:50:48;;;;;;;2.03;1.05;;;15.40;99.90;;;;;;5044727;28;20086;-61